Aviation Digital Data Service (ADDS)

Output produced by METARs form (1336 UTC 20 November 2017)
found at http://aviationweather.gov/adds/metars/
 
KFRG 201253Z AUTO 30011G17KT 10SM BKN070 03/M04 A3001 RMK AO2 SLP164 T00331039
KISP 201256Z 28015G20KT 10SM FEW047 SCT060 BKN070 04/M05 A2999 RMK AO2 SLP156 T00391050 $
KISP 201129Z 2012/2112 28010G18KT P6SM FEW045 
     FM201400 28017G25KT P6SM FEW050 
     FM202200 27012G19KT P6SM FEW050 
     FM210000 25008KT P6SM SKC 
     FM210600 22007KT P6SM SKC
       
KJFK 201251Z 28013KT 10SM FEW037 BKN060 03/M04 A3004 RMK AO2 SLP171 VIRGA SE T00331039
KJFK 201129Z 2012/2118 28014G20KT P6SM SCT045 
     FM201300 28018G26KT P6SM SCT050 
     FM202300 25014G21KT P6SM SKC 
     FM210200 24012KT P6SM SKC 
     FM210700 22010KT P6SM SKC 
     FM211500 22014G23KT P6SM SKC
       
KBDR 201252Z 26008KT 10SM FEW050 03/M06 A2998 RMK AO2 SLP152 T00331056
KBDR 201129Z 2012/2112 27010G17KT P6SM FEW070 
     FM201500 28015G24KT P6SM FEW060 
     FM202100 26012G19KT P6SM FEW050 
     FM210100 24008KT P6SM SKC